createdAt,value
2023-04-25T00:02:12.653Z,5.17
2023-04-25T00:04:40.137Z,3.13
2023-04-25T00:07:07.158Z,3.13
2023-04-25T00:09:34.187Z,3.00
2023-04-25T00:12:02.246Z,3.57
2023-04-25T00:14:28.863Z,2.90
2023-04-25T00:16:55.713Z,3.50
2023-04-25T00:19:22.416Z,3.70
2023-04-25T00:21:49.075Z,4.10
2023-04-25T00:24:15.729Z,2.37
2023-04-25T00:26:42.301Z,3.80
2023-04-25T00:29:08.920Z,2.93
2023-04-25T00:31:35.618Z,2.73
2023-04-25T00:34:02.371Z,2.27
2023-04-25T00:36:29.007Z,3.40
2023-04-25T00:38:56.016Z,2.97
2023-04-25T00:41:23.145Z,2.33
2023-04-25T00:43:50.398Z,2.65
2023-04-25T00:46:17.136Z,2.93
2023-04-25T00:48:43.768Z,2.60
2023-04-25T00:51:19.881Z,2.37
2023-04-25T00:53:47.266Z,2.63
2023-04-25T00:56:13.857Z,2.60
2023-04-25T00:58:42.281Z,2.70
2023-04-25T01:01:10.254Z,2.80
2023-04-25T01:03:41.973Z,3.20
2023-04-25T01:06:10.524Z,2.60
2023-04-25T01:08:39.176Z,2.97
2023-04-25T01:11:06.572Z,3.53
2023-04-25T01:13:33.632Z,2.63
2023-04-25T01:16:01.146Z,5.10
2023-04-25T01:18:27.786Z,3.23
2023-04-25T01:20:55.532Z,2.50
2023-04-25T01:23:23.236Z,2.57
2023-04-25T01:25:50.639Z,3.27
2023-04-25T01:28:18.236Z,2.80
2023-04-25T01:30:45.249Z,2.60
2023-04-25T01:33:14.679Z,4.67
2023-04-25T01:35:41.315Z,3.03
2023-04-25T01:38:07.862Z,4.83
2023-04-25T01:40:35.229Z,3.30
2023-04-25T01:43:01.904Z,5.40
2023-04-25T01:45:28.515Z,4.37
2023-04-25T01:47:55.082Z,3.10
2023-04-25T01:50:21.840Z,4.93
2023-04-25T01:52:48.800Z,3.47
2023-04-25T01:55:15.410Z,3.30
2023-04-25T01:57:42.484Z,5.38
2023-04-25T02:00:10.101Z,3.80
2023-04-25T02:02:36.892Z,4.40
2023-04-25T02:05:03.794Z,4.60
2023-04-25T02:07:30.412Z,5.17
2023-04-25T02:09:57.093Z,3.27
2023-04-25T02:12:23.718Z,3.27
2023-04-25T02:14:50.275Z,4.47
2023-04-25T02:17:17.073Z,4.40
2023-04-25T02:19:43.730Z,3.33
2023-04-25T02:22:11.372Z,6.70
2023-04-25T02:24:38.010Z,4.13
2023-04-25T02:27:04.650Z,4.68
2023-04-25T02:29:31.253Z,5.00
2023-04-25T02:31:57.893Z,4.13
2023-04-25T02:34:25.497Z,3.97
2023-04-25T02:36:52.104Z,3.40
2023-04-25T02:39:18.975Z,3.53
2023-04-25T02:41:45.621Z,3.53
2023-04-25T02:44:12.192Z,3.50
2023-04-25T02:46:39.948Z,3.70
2023-04-25T02:49:07.412Z,4.13
2023-04-25T02:51:34.081Z,4.20
2023-04-25T02:54:00.761Z,5.50
2023-04-25T02:56:27.711Z,5.13
2023-04-25T02:58:54.893Z,4.23
2023-04-25T03:01:21.699Z,5.60
2023-04-25T03:03:48.449Z,6.23
2023-04-25T03:06:16.497Z,5.03
2023-04-25T03:08:43.795Z,5.27
2023-04-25T03:11:10.588Z,5.57
2023-04-25T03:13:37.228Z,4.00
2023-04-25T03:16:04.009Z,4.77
2023-04-25T03:18:30.671Z,4.57
2023-04-25T03:20:57.202Z,5.37
2023-04-25T03:23:23.791Z,4.03
2023-04-25T03:25:50.524Z,4.10
2023-04-25T03:28:17.118Z,4.20
2023-04-25T03:30:43.655Z,4.07
2023-04-25T03:33:10.501Z,5.13
2023-04-25T03:35:37.097Z,5.43
2023-04-25T03:38:03.645Z,3.97
2023-04-25T03:40:30.238Z,4.50
2023-04-25T03:42:56.918Z,4.65
2023-04-25T03:45:23.487Z,3.77
2023-04-25T03:47:50.713Z,4.13
2023-04-25T03:50:17.464Z,3.67
2023-04-25T03:52:44.638Z,4.50
2023-04-25T03:55:11.427Z,6.17
2023-04-25T03:57:38.077Z,3.97
2023-04-25T04:00:05.718Z,5.07
2023-04-25T04:02:32.490Z,3.40
2023-04-25T04:04:59.380Z,4.70
2023-04-25T04:07:26.083Z,4.27
2023-04-25T04:09:52.684Z,4.77
2023-04-25T04:12:19.272Z,3.50
2023-04-25T04:14:45.835Z,5.73
2023-04-25T04:17:12.426Z,4.65
2023-04-25T04:19:39.006Z,3.87
2023-04-25T04:22:05.683Z,7.47
2023-04-25T04:24:32.260Z,6.07
2023-04-25T04:26:59.789Z,4.83
2023-04-25T04:29:26.384Z,6.17
2023-04-25T04:31:53.721Z,5.00
2023-04-25T04:34:20.608Z,4.60
2023-04-25T04:36:47.773Z,4.67
2023-04-25T04:39:15.036Z,4.93
2023-04-25T04:41:41.694Z,4.93
2023-04-25T04:44:09.905Z,4.83
2023-04-25T04:46:42.899Z,7.97
2023-04-25T04:49:10.828Z,4.63
2023-04-25T04:51:37.789Z,5.13
2023-04-25T04:54:05.079Z,7.97
2023-04-25T04:56:32.745Z,6.73
2023-04-25T04:59:00.905Z,6.30
2023-04-25T05:01:30.017Z,6.87
2023-04-25T05:04:01.507Z,5.03
2023-04-25T05:06:31.087Z,7.87
2023-04-25T05:08:58.679Z,4.97
2023-04-25T05:11:26.083Z,6.70
2023-04-25T05:13:53.818Z,6.30
2023-04-25T05:16:21.128Z,5.70
2023-04-25T05:18:48.164Z,5.97
2023-04-25T05:21:14.794Z,5.60
2023-04-25T05:23:41.350Z,4.67
2023-04-25T05:26:14.423Z,6.13
2023-04-25T05:28:42.523Z,6.33
2023-04-25T05:31:10.883Z,6.57
2023-04-25T05:33:37.416Z,5.30
2023-04-25T05:36:05.602Z,5.87
2023-04-25T05:38:35.798Z,5.53
2023-04-25T05:41:04.860Z,6.80
2023-04-25T05:43:32.213Z,7.10
2023-04-25T05:45:59.245Z,6.27
2023-04-25T05:48:26.258Z,5.90
2023-04-25T05:50:53.279Z,6.33
2023-04-25T05:53:20.899Z,6.33
2023-04-25T05:55:48.218Z,5.13
2023-04-25T05:58:15.287Z,5.93
2023-04-25T06:00:42.602Z,5.07
2023-04-25T06:03:10.935Z,5.30
2023-04-25T06:05:38.179Z,5.17
2023-04-25T06:08:05.396Z,8.30
2023-04-25T06:10:32.416Z,5.07
2023-04-25T06:12:59.427Z,4.63
2023-04-25T06:15:28.429Z,4.67
2023-04-25T06:17:56.323Z,4.93
2023-04-25T06:20:25.274Z,4.80
2023-04-25T06:22:52.802Z,4.80
2023-04-25T06:25:20.049Z,5.83
2023-04-25T06:27:47.554Z,4.70
2023-04-25T06:30:14.624Z,5.07
2023-04-25T06:32:41.699Z,4.23
2023-04-25T06:35:08.895Z,4.87
2023-04-25T06:37:35.927Z,5.33
2023-04-25T06:40:08.106Z,4.50
2023-04-25T06:42:36.071Z,4.93
2023-04-25T06:45:03.055Z,4.87
2023-04-25T06:47:30.723Z,5.43
2023-04-25T06:49:57.296Z,4.90
2023-04-25T06:52:24.343Z,5.27
2023-04-25T06:54:50.881Z,5.90
2023-04-25T06:57:17.802Z,4.50
2023-04-25T06:59:44.376Z,5.70
2023-04-25T07:02:11.067Z,3.87
2023-04-25T07:04:38.463Z,4.47
2023-04-25T07:07:05.344Z,5.13
2023-04-25T07:09:34.711Z,5.10
2023-04-25T07:12:02.441Z,5.40
2023-04-25T07:14:29.259Z,4.80
2023-04-25T07:16:57.822Z,5.73
2023-04-25T07:19:27.848Z,7.97
2023-04-25T07:21:54.635Z,5.13
2023-04-25T07:24:21.242Z,6.37
2023-04-25T07:26:47.960Z,5.20
2023-04-25T07:29:15.134Z,5.67
2023-04-25T07:31:41.759Z,8.93
2023-04-25T07:34:08.609Z,5.47
2023-04-25T07:36:35.334Z,5.57
2023-04-25T07:39:01.924Z,5.43
2023-04-25T07:41:30.262Z,6.00
2023-04-25T07:43:58.412Z,6.47
2023-04-25T07:46:26.729Z,6.83
2023-04-25T07:48:55.020Z,5.50
2023-04-25T07:51:23.351Z,5.17
2023-04-25T07:53:51.604Z,7.67
2023-04-25T07:56:19.850Z,5.27
2023-04-25T07:58:48.056Z,6.30
2023-04-25T08:01:16.289Z,5.03
2023-04-25T08:03:46.316Z,6.70
2023-04-25T08:06:16.601Z,5.67
2023-04-25T08:08:46.441Z,6.57
2023-04-25T08:11:16.830Z,5.40
2023-04-25T08:13:46.673Z,7.00
2023-04-25T08:16:16.978Z,5.33
2023-04-25T08:18:46.195Z,6.53
2023-04-25T08:21:13.460Z,6.10
2023-04-25T08:23:40.762Z,6.05
2023-04-25T08:26:07.998Z,5.97
2023-04-25T08:28:35.074Z,7.03
2023-04-25T08:31:02.132Z,6.97
2023-04-25T08:33:29.234Z,6.43
2023-04-25T08:35:56.293Z,6.93
2023-04-25T08:38:23.301Z,6.43
2023-04-25T08:40:52.679Z,6.40
2023-04-25T08:43:20.555Z,5.93
2023-04-25T08:45:47.990Z,6.37
2023-04-25T08:48:18.767Z,6.53
2023-04-25T08:50:52.723Z,8.97
2023-04-25T08:53:23.987Z,11.50
2023-04-25T08:55:51.560Z,9.93
2023-04-25T08:58:20.234Z,8.50
2023-04-25T09:00:48.603Z,5.37
2023-04-25T09:03:16.394Z,5.53
2023-04-25T09:05:46.681Z,5.95
2023-04-25T09:08:13.725Z,6.00
2023-04-25T09:10:41.847Z,6.47
2023-04-25T09:13:13.896Z,5.40
2023-04-25T09:15:52.164Z,6.30
2023-04-25T09:18:30.240Z,5.43
2023-04-25T09:21:01.923Z,5.83
2023-04-25T09:23:30.065Z,5.20
2023-04-25T09:25:57.432Z,5.30
2023-04-25T09:28:28.445Z,5.50
2023-04-25T09:30:58.403Z,5.13
2023-04-25T09:33:29.980Z,5.37
2023-04-25T09:36:02.711Z,5.60
2023-04-25T09:38:31.341Z,6.37
2023-04-25T09:40:58.397Z,6.77
2023-04-25T09:43:26.180Z,5.90
2023-04-25T09:45:58.757Z,5.87
2023-04-25T09:48:26.673Z,5.00
2023-04-25T09:51:06.623Z,5.07
2023-04-25T09:53:44.356Z,4.37
2023-04-25T09:56:12.225Z,4.17
2023-04-25T09:58:40.605Z,4.60
2023-04-25T10:01:08.728Z,5.27
2023-04-25T10:03:37.381Z,3.93
2023-04-25T10:06:07.925Z,4.63
2023-04-25T10:08:36.222Z,3.87
2023-04-25T10:11:08.512Z,3.23
2023-04-25T10:13:36.473Z,3.07
2023-04-25T10:16:05.710Z,6.43
2023-04-25T10:18:33.720Z,5.30
2023-04-25T10:21:05.980Z,4.67
2023-04-25T10:23:35.261Z,5.17
2023-04-25T10:26:02.740Z,5.47
2023-04-25T10:28:29.844Z,5.50
2023-04-25T10:31:06.886Z,7.63
2023-04-25T10:33:35.573Z,7.40
2023-04-25T10:36:22.291Z,8.07
2023-04-25T10:38:51.770Z,8.70
2023-04-25T10:41:23.706Z,10.33
2023-04-25T10:43:52.068Z,11.33
2023-04-25T10:46:25.236Z,9.33
2023-04-25T10:48:53.259Z,10.37
2023-04-25T10:51:29.541Z,8.93
2023-04-25T10:54:03.989Z,7.67
2023-04-25T10:56:32.744Z,6.80
2023-04-25T10:59:12.849Z,6.03
2023-04-25T11:01:45.240Z,4.40
2023-04-25T11:04:32.587Z,4.30
2023-04-25T11:07:18.666Z,4.47
2023-04-25T11:09:46.604Z,3.47
2023-04-25T11:12:14.356Z,3.47
2023-04-25T11:14:41.499Z,4.00
2023-04-25T11:17:08.692Z,4.87
2023-04-25T11:19:35.954Z,5.33
2023-04-25T11:22:03.652Z,4.30
2023-04-25T11:24:31.351Z,4.77
2023-04-25T11:26:59.979Z,3.90
2023-04-25T11:29:33.972Z,3.97
2023-04-25T11:32:02.054Z,4.60
2023-04-25T11:34:31.702Z,3.83
2023-04-25T11:36:58.978Z,4.60
2023-04-25T11:39:26.711Z,4.27
2023-04-25T11:41:54.281Z,3.20
2023-04-25T11:44:21.747Z,3.85
2023-04-25T11:46:49.020Z,4.30
2023-04-25T11:49:16.662Z,4.40
2023-04-25T11:51:44.489Z,5.00
2023-04-25T11:54:12.585Z,5.07
2023-04-25T11:56:43.028Z,6.57
2023-04-25T11:59:10.618Z,6.90
2023-04-25T12:01:38.773Z,6.73
2023-04-25T12:04:19.403Z,7.63
2023-04-25T12:06:48.821Z,7.63
2023-04-25T12:09:16.820Z,9.83
2023-04-25T12:11:47.710Z,8.33
2023-04-25T12:14:23.153Z,8.60
2023-04-25T12:16:50.346Z,8.07
2023-04-25T12:19:17.948Z,8.87
2023-04-25T12:21:57.181Z,10.33
2023-04-25T12:24:27.091Z,9.90
2023-04-25T12:26:56.045Z,8.23
2023-04-25T12:29:29.513Z,9.90
2023-04-25T12:31:59.675Z,8.47
2023-04-25T12:34:26.800Z,10.10
2023-04-25T12:36:53.890Z,8.43
2023-04-25T12:39:25.027Z,8.33
2023-04-25T12:41:54.859Z,8.23
2023-04-25T12:44:27.345Z,7.37
2023-04-25T12:46:57.836Z,8.30
2023-04-25T12:49:24.510Z,9.87
2023-04-25T12:51:52.440Z,8.10
2023-04-25T12:54:19.514Z,7.33
2023-04-25T12:56:47.184Z,6.67
2023-04-25T12:59:15.502Z,8.43
2023-04-25T13:01:46.334Z,9.43
2023-04-25T13:04:13.529Z,10.23
2023-04-25T13:06:40.412Z,8.10
2023-04-25T13:09:07.739Z,10.47
2023-04-25T13:11:34.334Z,10.20
2023-04-25T13:14:01.967Z,8.53
2023-04-25T13:16:28.970Z,8.37
2023-04-25T13:18:57.005Z,8.07
2023-04-25T13:21:23.725Z,7.97
2023-04-25T13:23:52.367Z,8.20
2023-04-25T13:26:19.105Z,9.23
2023-04-25T13:28:46.994Z,11.53
2023-04-25T13:31:14.426Z,14.17
2023-04-25T13:33:41.460Z,12.13
2023-04-25T13:36:08.557Z,10.47
2023-04-25T13:38:35.556Z,12.60
2023-04-25T13:41:02.592Z,15.10
2023-04-25T13:43:29.565Z,13.40
2023-04-25T13:45:56.675Z,9.80
2023-04-25T13:48:24.225Z,13.03
2023-04-25T13:50:51.589Z,13.70
2023-04-25T13:53:19.578Z,12.00
2023-04-25T13:55:46.696Z,9.10
2023-04-25T13:58:13.802Z,10.50
2023-04-25T14:00:41.181Z,13.27
2023-04-25T14:03:09.417Z,9.47
2023-04-25T14:05:40.892Z,8.27
2023-04-25T14:08:11.464Z,8.83
2023-04-25T14:10:38.729Z,9.40
2023-04-25T14:13:07.020Z,7.77
2023-04-25T14:15:35.938Z,9.43
2023-04-25T14:18:03.386Z,6.60
2023-04-25T14:20:30.968Z,6.40
2023-04-25T14:22:59.191Z,9.13
2023-04-25T14:25:26.714Z,8.07
2023-04-25T14:27:53.792Z,6.57
2023-04-25T14:30:21.211Z,6.40
2023-04-25T14:32:50.867Z,6.77
2023-04-25T14:35:18.116Z,7.00
2023-04-25T14:37:45.487Z,9.63
2023-04-25T14:40:13.979Z,10.20
2023-04-25T14:42:41.234Z,7.40
2023-04-25T14:45:09.340Z,7.93
2023-04-25T14:47:37.043Z,8.47
2023-04-25T14:50:05.468Z,6.57
2023-04-25T14:52:32.556Z,6.33
2023-04-25T14:55:01.364Z,8.57
2023-04-25T14:57:28.438Z,8.23
2023-04-25T14:59:55.446Z,8.23
2023-04-25T15:02:22.550Z,6.97
2023-04-25T15:04:49.806Z,11.57
2023-04-25T15:07:18.461Z,7.67
2023-04-25T15:09:45.934Z,6.67
2023-04-25T15:12:13.673Z,8.67
2023-04-25T15:14:40.704Z,8.93
2023-04-25T15:17:08.096Z,10.93
2023-04-25T15:19:35.344Z,5.93
2023-04-25T15:22:03.736Z,5.57
2023-04-25T15:24:30.974Z,6.97
2023-04-25T15:26:59.193Z,5.93
2023-04-25T15:29:27.131Z,7.45
2023-04-25T15:31:54.447Z,6.37
2023-04-25T15:34:21.516Z,7.47
2023-04-25T15:36:48.546Z,7.93
2023-04-25T15:39:15.558Z,7.67
2023-04-25T15:41:42.574Z,10.00
2023-04-25T15:44:10.793Z,8.40
2023-04-25T15:46:37.870Z,8.07
2023-04-25T15:49:04.963Z,9.63
2023-04-25T15:51:32.015Z,9.97
2023-04-25T15:53:59.073Z,9.27
2023-04-25T15:56:26.056Z,7.13
2023-04-25T15:58:55.086Z,8.20
2023-04-25T16:01:24.317Z,6.37
2023-04-25T16:06:19.598Z,6.30
2023-04-25T16:08:46.755Z,7.47
2023-04-25T16:11:14.751Z,8.10
2023-04-25T16:13:41.854Z,8.33
2023-04-25T16:16:09.031Z,10.10
2023-04-25T16:18:36.253Z,8.00
2023-04-25T16:21:03.816Z,10.60
2023-04-25T16:23:31.433Z,8.17
2023-04-25T16:25:58.491Z,9.57
2023-04-25T16:28:25.561Z,8.03
2023-04-25T16:30:52.584Z,9.57
2023-04-25T16:33:19.607Z,8.13
2023-04-25T16:35:46.758Z,10.73
2023-04-25T16:38:13.730Z,9.07
2023-04-25T16:40:40.801Z,6.97
2023-04-25T16:43:07.770Z,8.70
2023-04-25T16:45:34.827Z,8.03
2023-04-25T16:48:01.845Z,8.03
2023-04-25T16:50:28.937Z,7.73
2023-04-25T16:52:56.170Z,9.40
2023-04-25T16:55:23.159Z,8.20
2023-04-25T16:57:50.185Z,6.97
2023-04-25T17:00:18.193Z,10.03
2023-04-25T17:02:45.299Z,10.73
2023-04-25T17:05:12.549Z,9.87
2023-04-25T17:07:39.573Z,7.93
2023-04-25T17:10:06.807Z,7.37
2023-04-25T17:12:33.856Z,7.70
2023-04-25T17:15:01.274Z,6.60
2023-04-25T17:17:28.504Z,8.10
2023-04-25T17:19:55.602Z,8.63
2023-04-25T17:22:22.859Z,8.80
2023-04-25T17:24:50.392Z,9.50
2023-04-25T17:27:17.394Z,9.80
2023-04-25T17:29:44.440Z,7.97
2023-04-25T17:32:11.510Z,12.57
2023-04-25T17:34:40.105Z,9.43
2023-04-25T17:37:10.008Z,9.23
2023-04-25T17:39:37.478Z,7.60
2023-04-25T17:42:04.549Z,5.50
2023-04-25T17:44:31.734Z,5.07
2023-04-25T17:46:58.857Z,5.27
2023-04-25T17:49:25.851Z,6.60
2023-04-25T17:51:52.892Z,7.03
2023-04-25T17:54:25.434Z,9.27
2023-04-25T17:56:52.922Z,9.57
2023-04-25T17:59:19.994Z,10.87
2023-04-25T18:01:48.234Z,10.57
2023-04-25T18:04:15.565Z,12.80
2023-04-25T18:06:42.592Z,10.23
2023-04-25T18:09:16.044Z,10.73
2023-04-25T18:11:43.480Z,10.50
2023-04-25T18:14:17.053Z,12.80
2023-04-25T18:16:44.968Z,9.37
2023-04-25T18:19:15.294Z,10.20
2023-04-25T18:21:45.743Z,12.03
2023-04-25T18:24:13.825Z,10.80
2023-04-25T18:26:40.945Z,8.37
2023-04-25T18:29:07.998Z,9.30
2023-04-25T18:31:35.967Z,11.50
2023-04-25T18:34:03.199Z,9.10
2023-04-25T18:36:30.229Z,9.63
2023-04-25T18:38:59.457Z,8.70
2023-04-25T18:41:52.081Z,11.47
2023-04-25T18:44:16.312Z,9.83
2023-04-25T18:46:45.610Z,9.23
2023-04-25T18:49:13.102Z,11.03
2023-04-25T18:51:41.686Z,9.43
2023-04-25T18:54:10.826Z,10.50
2023-04-25T18:56:37.819Z,9.87
2023-04-25T18:59:04.912Z,10.67
2023-04-25T19:01:34.015Z,11.73
2023-04-25T19:04:04.269Z,12.23
2023-04-25T19:06:33.384Z,13.93
2023-04-25T19:09:00.408Z,20.67
2023-04-25T19:11:27.660Z,18.63
2023-04-25T19:13:56.970Z,19.70
2023-04-25T19:16:26.155Z,15.80
2023-04-25T19:18:55.067Z,18.80
2023-04-25T19:21:22.557Z,12.47
2023-04-25T19:23:49.923Z,12.03
2023-04-25T19:26:18.538Z,15.73
2023-04-25T19:28:45.509Z,11.30
2023-04-25T19:31:12.730Z,11.20
2023-04-25T19:33:39.778Z,13.70
2023-04-25T19:36:06.918Z,11.30
2023-04-25T19:38:33.914Z,13.00
2023-04-25T19:41:01.323Z,24.20
2023-04-25T19:43:29.583Z,19.37
2023-04-25T19:45:56.675Z,21.50
2023-04-25T19:48:23.817Z,19.40
2023-04-25T19:50:50.980Z,20.38
2023-04-25T19:53:17.961Z,13.80
2023-04-25T19:55:45.009Z,17.97
2023-04-25T19:58:13.715Z,21.03
2023-04-25T20:00:40.773Z,17.53
2023-04-25T20:03:08.262Z,13.73
2023-04-25T20:05:35.318Z,13.23
2023-04-25T20:08:03.179Z,13.63
2023-04-25T20:10:30.254Z,12.40
2023-04-25T20:12:57.249Z,11.57
2023-04-25T20:15:24.269Z,10.93
2023-04-25T20:17:51.288Z,10.13
2023-04-25T20:20:18.592Z,9.43
2023-04-25T20:22:45.706Z,8.80
2023-04-25T20:25:13.454Z,9.85
2023-04-25T20:27:40.585Z,7.60
2023-04-25T20:30:08.510Z,7.60
2023-04-25T20:32:36.032Z,9.67
2023-04-25T20:35:03.843Z,9.47
2023-04-25T20:37:34.580Z,9.73
2023-04-25T20:40:02.249Z,9.57
2023-04-25T20:42:29.276Z,12.20
2023-04-25T20:44:56.291Z,8.90
2023-04-25T20:47:23.295Z,9.70
2023-04-25T20:49:50.327Z,9.00
2023-04-25T20:52:17.942Z,10.13
2023-04-25T20:54:50.220Z,8.67
2023-04-25T20:57:17.621Z,9.60
2023-04-25T20:59:44.788Z,12.77
2023-04-25T21:02:15.473Z,9.20
2023-04-25T21:04:46.114Z,9.60
2023-04-25T21:07:13.674Z,10.03
2023-04-25T21:09:45.397Z,9.10
2023-04-25T21:12:12.796Z,9.60
2023-04-25T21:14:39.840Z,11.37
2023-04-25T21:17:06.944Z,11.43
2023-04-25T21:19:34.165Z,10.33
2023-04-25T21:22:02.223Z,9.67
2023-04-25T21:24:31.052Z,9.73
2023-04-25T21:26:58.012Z,9.93
2023-04-25T21:29:25.043Z,13.00
2023-04-25T21:31:52.893Z,11.97
2023-04-25T21:34:19.895Z,10.27
2023-04-25T21:36:46.980Z,11.70
2023-04-25T21:39:14.963Z,14.30
2023-04-25T21:41:44.178Z,18.23
2023-04-25T21:44:12.438Z,14.67
2023-04-25T21:46:39.537Z,14.20
2023-04-25T21:49:07.000Z,13.23
2023-04-25T21:51:34.151Z,14.13
2023-04-25T21:54:05.118Z,11.80
2023-04-25T21:56:32.889Z,11.97
2023-04-25T21:58:59.860Z,11.03
2023-04-25T22:01:27.734Z,10.43
2023-04-25T22:03:55.161Z,13.37
2023-04-25T22:06:22.326Z,11.80
2023-04-25T22:08:49.717Z,12.27
2023-04-25T22:11:17.238Z,13.88
2023-04-25T22:13:45.400Z,11.57
2023-04-25T22:16:12.489Z,11.20
2023-04-25T22:18:40.533Z,15.93
2023-04-25T22:21:08.546Z,12.07
2023-04-25T22:23:37.102Z,12.87
2023-04-25T22:26:04.429Z,12.57
2023-04-25T22:28:31.521Z,11.17
2023-04-25T22:30:58.509Z,13.87
2023-04-25T22:33:25.893Z,13.57
2023-04-25T22:35:52.932Z,10.90
2023-04-25T22:38:19.974Z,12.77
2023-04-25T22:40:47.848Z,13.57
2023-04-25T22:43:15.750Z,11.43
2023-04-25T22:45:42.905Z,13.90
2023-04-25T22:48:10.111Z,13.07
2023-04-25T22:50:40.249Z,13.70
2023-04-25T22:53:09.109Z,13.57
2023-04-25T22:55:36.804Z,14.13
2023-04-25T22:58:04.656Z,11.23
2023-04-25T23:00:34.153Z,11.53
2023-04-25T23:03:03.467Z,10.63
2023-04-25T23:05:31.575Z,10.93
2023-04-25T23:07:58.993Z,10.70
2023-04-25T23:10:26.012Z,11.33
2023-04-25T23:12:54.688Z,9.60
2023-04-25T23:15:21.693Z,10.23
2023-04-25T23:17:48.895Z,10.10
2023-04-25T23:20:16.026Z,9.87
2023-04-25T23:22:43.488Z,10.40
2023-04-25T23:25:10.643Z,13.25
2023-04-25T23:27:38.029Z,9.60
2023-04-25T23:30:06.174Z,9.63
2023-04-25T23:32:33.271Z,12.53
2023-04-25T23:35:00.915Z,11.70
2023-04-25T23:37:28.010Z,12.80
2023-04-25T23:39:55.529Z,10.10
2023-04-25T23:42:22.568Z,9.33
2023-04-25T23:44:49.537Z,11.67
2023-04-25T23:47:17.629Z,11.47
2023-04-25T23:49:45.016Z,10.83
2023-04-25T23:52:13.024Z,9.57
2023-04-25T23:54:40.102Z,15.53
2023-04-25T23:57:07.124Z,11.53
2023-04-25T23:59:34.488Z,10.13
